Time;durP1;ratioP1;P1;durP2;ratioP2;P2;SDS_P1;SDS_P2;PMS_P1;PMS_P2;Temp;Humidity;BMP_temperature;BMP_pressure;BME280_temperature;BME280_humidity;BME280_pressure;Samples;Min_cycle;Max_cycle;Signal;HPM_P1;HPM_P2
2023/01/04 00:01:48;;;;;;;16.70;8.40;;;;;;;3.81;72.78;101393.71;126573;1296;107384;-73
2023/01/04 00:04:53;;;;;;;15.80;8.80;;;;;;;3.84;72.81;101385.58;126567;1296;107477;-73
2023/01/04 00:07:59;;;;;;;14.40;8.70;;;;;;;3.84;72.59;101385.77;126638;1299;107267;-73
2023/01/04 00:11:08;;;;;;;15.20;8.80;;;;;;;3.81;72.76;101387.73;126760;1304;107228;-73
2023/01/04 00:14:16;;;;;;;17.20;8.90;;;;;;;3.77;72.71;101386.73;126570;1295;107483;-73
2023/01/04 00:17:21;;;;;;;14.00;8.80;;;;;;;3.73;72.75;101392.02;126634;1296;107545;-73
2023/01/04 00:20:27;;;;;;;13.60;8.70;;;;;;;3.71;72.84;101389.63;126605;1296;107522;-73
2023/01/04 00:23:32;;;;;;;15.50;8.70;;;;;;;3.72;72.89;101392.91;126544;1296;107506;-73
2023/01/04 00:26:38;;;;;;;13.60;7.20;;;;;;;3.72;72.96;101394.33;126632;1295;107514;-75
2023/01/04 00:29:43;;;;;;;13.70;8.20;;;;;;;3.76;72.95;101392.20;126632;1298;107539;-74
2023/01/04 00:32:49;;;;;;;15.30;9.00;;;;;;;3.78;72.78;101393.13;126587;1296;107530;-73
2023/01/04 00:35:54;;;;;;;15.30;8.80;;;;;;;3.80;72.83;101391.98;126582;1294;107490;-74
2023/01/04 00:39:07;;;;;;;16.30;9.30;;;;;;;3.77;72.60;101395.17;126531;1297;107731;-73
2023/01/04 00:42:11;;;;;;;;;;;;;;;3.70;72.65;101393.40;126536;1298;107581;-73
2023/01/04 00:45:16;;;;;;;14.60;8.20;;;;;;;3.65;72.66;101399.11;126573;1296;107512;-73
2023/01/04 00:48:22;;;;;;;15.60;9.00;;;;;;;3.60;72.75;101401.48;126510;1294;107576;-73
2023/01/04 00:51:29;;;;;;;14.90;9.30;;;;;;;3.54;72.69;101399.84;126557;1296;107516;-73
2023/01/04 00:54:35;;;;;;;15.80;9.30;;;;;;;3.49;72.43;101405.21;126565;1296;107634;-73
2023/01/04 00:57:40;;;;;;;16.30;9.80;;;;;;;3.41;72.50;101406.66;126548;1293;107514;-74
2023/01/04 01:00:46;;;;;;;16.60;8.80;;;;;;;3.36;72.39;101410.44;126607;1301;109218;-73
2023/01/04 01:03:54;;;;;;;15.90;9.00;;;;;;;3.31;72.42;101415.08;126562;1296;107499;-73
2023/01/04 01:06:59;;;;;;;15.80;8.80;;;;;;;3.28;72.30;101422.65;126586;1293;107482;-72
2023/01/04 01:10:06;;;;;;;14.80;9.00;;;;;;;3.19;72.15;101420.80;126608;1295;106688;-74
2023/01/04 01:13:12;;;;;;;14.80;8.70;;;;;;;3.07;72.28;101419.45;126668;1301;108484;-74
2023/01/04 01:16:19;;;;;;;16.10;8.90;;;;;;;2.96;72.22;101410.68;126627;1293;106525;-73
2023/01/04 01:19:26;;;;;;;12.00;7.60;;;;;;;2.85;72.03;101407.71;126590;1297;106708;-73
2023/01/04 01:22:32;;;;;;;13.60;7.60;;;;;;;2.71;72.01;101408.89;126575;1296;107326;-73
2023/01/04 01:25:37;;;;;;;15.20;8.40;;;;;;;2.58;71.99;101405.13;126526;1288;108069;-73
2023/01/04 01:28:43;;;;;;;13.40;7.70;;;;;;;2.47;71.90;101403.05;126581;1298;107628;-73
2023/01/04 01:31:48;;;;;;;15.30;8.30;;;;;;;2.36;71.69;101394.44;126631;1298;107459;-74
2023/01/04 01:34:54;;;;;;;13.90;7.80;;;;;;;2.25;71.81;101390.71;126597;1302;108409;-74
2023/01/04 01:38:00;;;;;;;14.80;8.40;;;;;;;2.15;71.89;101396.79;126649;1296;107525;-74
2023/01/04 01:41:06;;;;;;;16.00;9.30;;;;;;;2.07;71.59;101398.41;126582;1288;106047;-73
2023/01/04 01:44:42;;;;;;;16.50;8.70;;;;;;;2.00;71.90;101392.94;126539;1296;107967;-74
2023/01/04 01:47:50;;;;;;;16.90;8.40;;;;;;;1.90;71.93;101398.61;126500;1295;107532;-74
2023/01/04 01:51:01;;;;;;;15.20;8.20;;;;;;;1.84;71.84;101406.96;126534;1296;106579;-74
2023/01/04 01:54:12;;;;;;;13.70;7.30;;;;;;;1.80;71.57;101407.70;126554;1301;107355;-74
2023/01/04 01:57:22;;;;;;;14.80;8.50;;;;;;;1.78;71.60;101401.29;126629;1293;107600;-76
2023/01/04 02:00:29;;;;;;;15.60;8.10;;;;;;;1.77;71.49;101404.83;126605;1292;107379;-75
2023/01/04 02:03:39;;;;;;;15.30;8.00;;;;;;;1.74;71.53;101402.67;126577;1293;107739;-75
2023/01/04 02:06:49;;;;;;;13.50;7.80;;;;;;;1.67;71.49;101411.06;126578;1293;107259;-72
2023/01/04 02:09:55;;;;;;;15.30;8.10;;;;;;;1.63;71.49;101411.60;126643;1293;107423;-75
2023/01/04 02:13:06;;;;;;;14.80;8.60;;;;;;;1.58;71.16;101414.61;126571;1296;107485;-72
2023/01/04 02:16:20;;;;;;;14.80;8.80;;;;;;;1.52;71.23;101408.91;126568;1295;107256;-72
2023/01/04 02:20:01;;;;;;;15.80;9.20;;;;;;;1.46;71.24;101401.09;126539;1296;107388;-73
2023/01/04 02:23:28;;;;;;;14.90;8.80;;;;;;;1.35;71.36;101391.42;126582;1296;107464;-73
2023/01/04 02:27:09;;;;;;;15.60;9.50;;;;;;;1.26;71.38;101386.70;126571;1280;107814;-74
2023/01/04 02:30:57;;;;;;;17.00;9.20;;;;;;;1.15;71.28;101385.91;126491;1297;107394;-74
2023/01/04 02:34:11;;;;;;;15.50;8.70;;;;;;;1.05;71.35;101377.08;126566;1296;107710;-74
2023/01/04 02:37:23;;;;;;;15.20;9.10;;;;;;;1.00;71.36;101374.48;126597;1296;107571;-74
2023/01/04 02:40:40;;;;;;;15.10;9.10;;;;;;;0.95;71.34;101369.44;126554;1296;106404;-73
2023/01/04 02:50:29;;;;;;;14.80;8.90;;;;;;;0.75;71.15;101357.96;126540;1288;107541;-74
2023/01/04 02:50:54;;;;;;;15.40;9.30;;;;;;;0.73;71.20;101354.23;126628;1287;106407;-73
2023/01/04 02:54:04;;;;;;;16.80;8.90;;;;;;;0.70;71.32;101352.21;126645;1293;107506;-73
2023/01/04 02:57:31;;;;;;;16.20;9.60;;;;;;;0.64;71.35;101350.20;126573;1296;106601;-73
2023/01/04 03:08:01;;;;;;;;;;;;;;;0.54;71.39;101346.92;126981;1286;107494;-73
2023/01/04 03:12:30;;;;;;;17.70;9.90;;;;;;;0.52;71.42;101339.14;126717;1286;106644;-73
2023/01/04 03:14:43;;;;;;;17.90;10.60;;;;;;;0.46;71.58;101328.52;127057;1294;108106;-73
2023/01/04 03:17:53;;;;;;;20.80;10.90;;;;;;;0.41;71.57;101323.84;126834;1295;107307;-72
2023/01/04 03:21:01;;;;;;;17.80;9.80;;;;;;;0.36;71.40;101331.36;126984;1296;107241;-71
2023/01/04 03:43:08;;;;;;;16.30;10.20;;;;;;;0.57;71.39;101299.53;126862;1295;107537;-74
2023/01/04 03:48:30;;;;;;;18.00;10.60;;;;;;;0.47;71.13;101297.50;126568;1292;106384;-70
2023/01/04 03:51:36;;;;;;;;;;;;;;;0.42;71.06;101299.96;126608;1296;107429;-72
2023/01/04 03:54:45;;;;;;;18.90;10.40;;;;;;;0.37;71.00;101292.65;126541;1295;107375;-76
2023/01/04 03:57:52;;;;;;;20.00;11.60;;;;;;;0.29;71.06;101285.43;126518;1289;107560;-76
2023/01/04 04:01:02;;;;;;;20.90;12.00;;;;;;;0.25;71.03;101284.39;126527;1296;106350;-76
2023/01/04 04:10:57;;;;;;;24.80;12.80;;;;;;;0.09;71.06;101281.69;126772;1287;107596;-76
2023/01/04 04:14:02;;;;;;;23.90;12.90;;;;;;;0.06;71.10;101280.61;126591;1296;107319;-76
2023/01/04 04:17:08;;;;;;;23.60;13.10;;;;;;;0.01;71.07;101280.27;126556;1296;107551;-76
2023/01/04 04:20:14;;;;;;;25.20;14.20;;;;;;;-0.02;70.91;101280.18;126551;1296;107480;-76
2023/01/04 04:23:19;;;;;;;27.10;14.10;;;;;;;-0.06;70.98;101277.54;126613;1296;107245;-75
2023/01/04 04:26:25;;;;;;;28.50;14.50;;;;;;;-0.09;70.90;101274.02;126506;1296;106562;-76
2023/01/04 04:29:31;;;;;;;24.30;13.80;;;;;;;-0.12;70.95;101269.76;126519;1296;107631;-72
2023/01/04 04:32:36;;;;;;;24.40;13.30;;;;;;;-0.17;70.81;101266.63;126542;1296;107478;-76
2023/01/04 04:35:42;;;;;;;26.00;14.80;;;;;;;-0.21;70.91;101263.30;126458;1293;108400;-74
2023/01/04 04:38:47;;;;;;;25.80;14.10;;;;;;;-0.26;70.75;101258.58;126505;1296;107543;-74
2023/01/04 04:41:53;;;;;;;25.40;14.40;;;;;;;-0.33;70.89;101260.40;126547;1298;107645;-76
2023/01/04 04:44:58;;;;;;;27.70;15.40;;;;;;;-0.37;71.03;101254.27;126527;1296;106984;-76
2023/01/04 04:48:04;;;;;;;27.60;14.90;;;;;;;-0.37;70.89;101261.78;126535;1297;107523;-78
2023/01/04 04:51:09;;;;;;;25.90;14.30;;;;;;;-0.37;70.92;101263.55;126610;1288;107622;-76
2023/01/04 04:54:18;;;;;;;27.30;14.40;;;;;;;-0.38;70.91;101259.91;126603;1296;108704;-75
2023/01/04 04:57:23;;;;;;;26.80;14.60;;;;;;;-0.40;70.87;101249.15;126674;1296;107501;-75
2023/01/04 05:00:29;;;;;;;30.70;17.40;;;;;;;-0.42;70.92;101250.61;126521;1296;107553;-75
2023/01/04 05:03:34;;;;;;;30.90;16.50;;;;;;;-0.45;70.98;101247.02;126517;1296;108584;-75
2023/01/04 05:06:40;;;;;;;27.00;14.30;;;;;;;-0.47;71.03;101241.33;126579;1288;107647;-75
2023/01/04 05:09:45;;;;;;;34.40;18.20;;;;;;;-0.47;70.96;101239.61;126501;1295;107506;-75
2023/01/04 05:13:00;;;;;;;30.10;15.80;;;;;;;-0.49;70.81;101239.70;126539;1297;107397;-75
2023/01/04 05:16:09;;;;;;;33.40;15.60;;;;;;;-0.50;71.11;101236.76;126516;1296;108444;-75
2023/01/04 05:19:15;;;;;;;32.00;16.30;;;;;;;-0.47;71.06;101231.23;126491;1288;107381;-75
2023/01/04 05:22:20;;;;;;;28.90;15.60;;;;;;;-0.40;71.11;101222.22;126576;1289;107493;-75
2023/01/04 05:25:26;;;;;;;27.60;14.20;;;;;;;-0.32;71.06;101222.79;126594;1290;107517;-77
2023/01/04 05:28:32;;;;;;;31.60;18.50;;;;;;;-0.27;71.14;101219.64;126550;1294;107339;-77
2023/01/04 05:31:40;;;;;;;32.20;17.60;;;;;;;-0.25;71.22;101219.36;126499;1296;107462;-76
2023/01/04 05:34:46;;;;;;;31.10;16.00;;;;;;;-0.22;71.27;101212.95;126674;1292;107224;-76
2023/01/04 05:37:51;;;;;;;26.90;16.20;;;;;;;-0.21;71.25;101209.23;126528;1296;108705;-75
2023/01/04 05:40:57;;;;;;;32.80;16.60;;;;;;;-0.23;71.23;101204.25;126538;1298;107530;-75
2023/01/04 05:44:02;;;;;;;44.90;22.60;;;;;;;-0.25;71.29;101195.75;126529;1282;106557;-77
2023/01/04 05:47:08;;;;;;;45.70;23.10;;;;;;;-0.29;71.27;101192.60;126577;1287;107579;-75
2023/01/04 05:50:13;;;;;;;37.50;18.70;;;;;;;-0.30;71.36;101189.67;126704;1287;107675;-76
2023/01/04 05:53:20;;;;;;;44.00;21.20;;;;;;;-0.32;71.42;101189.56;127107;1287;107253;-76
2023/01/04 05:56:25;;;;;;;41.40;22.10;;;;;;;-0.38;71.29;101187.00;126834;1280;108479;-77
2023/01/04 05:59:31;;;;;;;35.70;19.30;;;;;;;-0.43;71.54;101166.91;127702;1288;107128;-75
2023/01/04 06:02:36;;;;;;;38.30;20.70;;;;;;;-0.46;71.69;101161.63;126869;1274;107506;-76
2023/01/04 06:05:43;;;;;;;35.80;19.10;;;;;;;-0.53;71.87;101161.02;126966;1282;107187;-76
2023/01/04 06:08:48;;;;;;;35.00;18.70;;;;;;;-0.56;72.13;101160.63;126845;1288;107493;-75
2023/01/04 06:11:56;;;;;;;32.40;17.60;;;;;;;-0.57;72.12;101161.50;126683;1287;107504;-75
2023/01/04 06:15:03;;;;;;;35.40;19.20;;;;;;;-0.55;72.48;101158.49;126922;1280;108625;-75
2023/01/04 06:18:09;;;;;;;35.90;18.80;;;;;;;-0.54;72.40;101152.52;126731;1288;107509;-72
2023/01/04 06:21:15;;;;;;;33.40;17.70;;;;;;;-0.53;72.24;101146.53;126997;1298;107544;-74
2023/01/04 06:24:20;;;;;;;31.60;17.00;;;;;;;-0.45;72.69;101152.86;127009;1288;107544;-73
2023/01/04 06:27:26;;;;;;;29.50;15.60;;;;;;;-0.37;72.54;101148.33;127009;1288;107382;-73
2023/01/04 06:30:31;;;;;;;33.90;17.30;;;;;;;-0.29;72.83;101141.36;126630;1296;109057;-73
2023/01/04 06:33:37;;;;;;;35.40;18.60;;;;;;;-0.22;72.92;101134.09;126658;1296;105901;-75
2023/01/04 06:36:43;;;;;;;30.50;17.50;;;;;;;-0.16;73.13;101134.89;126611;1297;107773;-75
2023/01/04 06:39:49;;;;;;;32.50;17.90;;;;;;;-0.14;73.27;101132.88;126734;1288;108496;-75
2023/01/04 06:42:54;;;;;;;44.80;20.80;;;;;;;-0.13;73.40;101136.52;126602;1288;108669;-76
2023/01/04 06:46:00;;;;;;;37.00;18.90;;;;;;;-0.10;73.75;101134.84;126546;1297;106133;-76
2023/01/04 06:49:06;;;;;;;35.80;17.80;;;;;;;-0.09;73.97;101134.07;126563;1298;108691;-75
2023/01/04 06:52:11;;;;;;;34.10;18.70;;;;;;;-0.06;73.97;101137.83;126571;1297;107509;-75
2023/01/04 06:55:17;;;;;;;95.20;32.90;;;;;;;-0.03;74.22;101138.90;126526;1295;107660;-76
2023/01/04 06:58:23;;;;;;;197.50;54.70;;;;;;;0.06;74.55;101141.34;126590;1298;106387;-76
2023/01/04 07:01:28;;;;;;;198.70;53.90;;;;;;;0.18;74.96;101140.48;126573;1297;107565;-75
2023/01/04 07:04:34;;;;;;;82.80;29.60;;;;;;;0.33;75.18;101145.98;126465;1289;107583;-74
2023/01/04 07:07:39;;;;;;;51.00;22.10;;;;;;;0.50;75.39;101143.84;126590;1302;107647;-75
2023/01/04 07:10:46;;;;;;;45.50;23.10;;;;;;;0.68;75.58;101140.79;126749;1288;107351;-75
2023/01/04 07:13:52;;;;;;;39.30;20.20;;;;;;;0.85;75.69;101142.66;126626;1288;107556;-75
2023/01/04 07:16:57;;;;;;;45.30;23.80;;;;;;;0.99;76.03;101142.71;126582;1297;106536;-75
2023/01/04 07:20:03;;;;;;;41.50;21.60;;;;;;;1.08;75.79;101140.20;126593;1297;107504;-76
2023/01/04 07:23:10;;;;;;;35.90;21.90;;;;;;;1.16;75.85;101133.00;126687;1288;107766;-75
2023/01/04 07:26:15;;;;;;;40.80;22.20;;;;;;;1.23;75.93;101122.02;126482;1297;107623;-75
2023/01/04 07:29:21;;;;;;;39.90;22.50;;;;;;;1.27;76.10;101118.16;126466;1291;107603;-74
2023/01/04 07:32:27;;;;;;;36.80;20.60;;;;;;;1.30;76.14;101114.30;126495;1297;107534;-76
2023/01/04 07:35:32;;;;;;;46.30;22.70;;;;;;;1.32;76.33;101108.61;126437;1298;107501;-76
2023/01/04 07:38:38;;;;;;;37.70;20.30;;;;;;;1.36;76.50;101113.34;126463;1281;107235;-77
2023/01/04 07:41:44;;;;;;;37.60;20.10;;;;;;;1.45;76.46;101113.27;126474;1290;107551;-74
2023/01/04 07:44:49;;;;;;;30.90;17.80;;;;;;;1.57;76.43;101110.05;126525;1293;107597;-76
2023/01/04 07:47:55;;;;;;;34.50;18.90;;;;;;;1.70;76.50;101105.58;126688;1286;107501;-77
2023/01/04 07:51:00;;;;;;;35.50;19.70;;;;;;;1.79;76.48;101099.47;126488;1292;107480;-74
2023/01/04 07:54:06;;;;;;;35.20;19.50;;;;;;;1.87;76.44;101094.54;126512;1293;107619;-76
2023/01/04 07:57:12;;;;;;;34.60;19.20;;;;;;;1.93;76.75;101088.79;126475;1297;107291;-74
2023/01/04 08:00:18;;;;;;;35.80;20.70;;;;;;;1.98;76.69;101096.99;126510;1296;106172;-74
2023/01/04 08:03:24;;;;;;;38.50;20.80;;;;;;;1.99;76.64;101110.45;126428;1298;107441;-75
2023/01/04 08:06:29;;;;;;;37.90;21.90;;;;;;;2.00;76.86;101107.78;126499;1296;107557;-75
2023/01/04 08:09:38;;;;;;;39.10;21.50;;;;;;;2.03;76.87;101102.02;126483;1274;107494;-75
2023/01/04 08:12:43;;;;;;;46.20;22.90;;;;;;;2.02;76.90;101096.96;126536;1297;107537;-74
2023/01/04 08:15:55;;;;;;;45.70;23.50;;;;;;;2.02;76.97;101088.00;126583;1289;107519;-75
2023/01/04 08:19:02;;;;;;;37.70;19.80;;;;;;;2.07;77.12;101079.67;126560;1296;107374;-75
2023/01/04 08:22:07;;;;;;;38.50;20.50;;;;;;;2.12;77.13;101065.56;126603;1289;107671;-75
2023/01/04 08:25:13;;;;;;;52.60;27.50;;;;;;;2.19;77.26;101058.17;126545;1297;107649;-76
2023/01/04 08:28:19;;;;;;;41.00;21.70;;;;;;;2.23;77.39;101057.25;126527;1296;107238;-75
2023/01/04 08:31:26;;;;;;;37.30;21.60;;;;;;;2.26;77.21;101058.00;126494;1288;107973;-75
2023/01/04 08:34:32;;;;;;;56.40;30.00;;;;;;;2.29;77.25;101055.91;126586;1296;107375;-75
2023/01/04 08:37:38;;;;;;;47.20;26.00;;;;;;;2.33;77.42;101061.84;126879;1297;107504;-76
2023/01/04 08:40:43;;;;;;;55.50;33.60;;;;;;;2.37;77.45;101058.66;126726;1298;108256;-76
2023/01/04 08:43:49;;;;;;;53.50;32.00;;;;;;;2.40;77.42;101045.48;126828;1295;108705;-76
2023/01/04 08:46:55;;;;;;;65.80;36.90;;;;;;;2.43;77.68;101029.04;126570;1298;107265;-76
2023/01/04 08:50:01;;;;;;;79.30;41.40;;;;;;;2.49;77.64;101017.78;126570;1295;107484;-75
2023/01/04 08:53:08;;;;;;;85.10;37.10;;;;;;;2.58;77.78;101008.37;126745;1294;108447;-75
2023/01/04 08:56:13;;;;;;;120.10;47.70;;;;;;;2.68;77.72;100999.72;126661;1295;106466;-76
2023/01/04 08:59:19;;;;;;;68.20;30.40;;;;;;;2.78;77.71;100989.33;126942;1296;107658;-75
2023/01/04 09:02:26;;;;;;;55.30;28.30;;;;;;;2.85;77.86;100984.74;126865;1296;107547;-77
2023/01/04 09:05:33;;;;;;;57.30;32.50;;;;;;;2.88;77.55;100980.00;126917;1298;107501;-77
2023/01/04 09:08:40;;;;;;;48.50;26.60;;;;;;;2.92;77.91;100977.31;126769;1288;107387;-77
2023/01/04 09:11:45;;;;;;;46.10;24.20;;;;;;;2.96;77.88;100974.27;126595;1288;107535;-74
2023/01/04 09:14:51;;;;;;;44.30;22.60;;;;;;;3.01;78.00;100968.21;126501;1296;107587;-75
2023/01/04 09:17:56;;;;;;;32.30;19.40;;;;;;;3.05;78.25;100966.01;126497;1296;107538;-74
2023/01/04 09:21:06;;;;;;;28.80;16.20;;;;;;;3.15;78.21;100966.91;126627;1289;107519;-75
2023/01/04 09:24:12;;;;;;;32.40;18.60;;;;;;;3.27;78.39;100969.20;126656;1296;107602;-74
2023/01/04 09:27:18;;;;;;;38.70;22.50;;;;;;;3.38;78.19;100960.61;126603;1296;107391;-74
2023/01/04 09:30:24;;;;;;;33.80;19.90;;;;;;;3.49;78.30;100955.03;126551;1297;107519;-76
2023/01/04 09:33:29;;;;;;;29.80;18.80;;;;;;;3.58;78.16;100953.88;126573;1296;107518;-74
2023/01/04 09:36:35;;;;;;;31.90;18.70;;;;;;;3.67;78.27;100949.25;126563;1296;107280;-74
2023/01/04 09:39:40;;;;;;;30.10;19.00;;;;;;;3.75;78.22;100944.73;126600;1298;107470;-74
2023/01/04 09:42:46;;;;;;;34.00;19.40;;;;;;;3.83;78.13;100931.55;126598;1298;109230;-74
2023/01/04 09:45:58;;;;;;;33.00;19.50;;;;;;;3.89;78.17;100926.96;126544;1297;106422;-74
2023/01/04 09:49:19;;;;;;;31.30;18.40;;;;;;;3.97;78.21;100926.00;126559;1288;107375;-72
2023/01/04 09:52:34;;;;;;;28.10;16.90;;;;;;;4.08;78.28;100916.30;126682;1289;107602;-75
2023/01/04 09:55:46;;;;;;;31.10;18.60;;;;;;;4.22;78.33;100903.99;126912;1294;107142;-75
2023/01/04 09:58:54;;;;;;;31.20;17.80;;;;;;;4.33;78.31;100893.79;126942;1296;107396;-74
2023/01/04 10:02:03;;;;;;;30.10;17.60;;;;;;;4.45;78.32;100883.52;126555;1298;107428;-75
2023/01/04 10:05:17;;;;;;;29.40;18.10;;;;;;;4.54;78.10;100870.80;126722;1296;107602;-75
2023/01/04 10:08:23;;;;;;;28.00;18.90;;;;;;;4.62;78.08;100859.73;126641;1296;108652;-74
2023/01/04 10:11:45;;;;;;;33.40;20.50;;;;;;;4.67;78.02;100850.95;126877;1297;108729;-74
2023/01/04 10:15:06;;;;;;;32.20;20.40;;;;;;;4.71;78.11;100839.40;126794;1298;107431;-75
2023/01/04 10:18:25;;;;;;;30.70;17.60;;;;;;;4.76;77.99;100822.68;126537;1298;107482;-75
2023/01/04 10:21:42;;;;;;;28.50;17.40;;;;;;;4.81;77.95;100808.61;126534;1298;108602;-75
2023/01/04 10:24:56;;;;;;;29.30;17.80;;;;;;;4.91;78.14;100789.97;126778;1298;107716;-75
2023/01/04 10:28:20;;;;;;;31.10;18.20;;;;;;;5.03;78.13;100774.44;126741;1296;107489;-73
2023/01/04 10:31:31;;;;;;;30.30;18.70;;;;;;;5.19;77.99;100762.66;126737;1296;107512;-73
2023/01/04 10:34:42;;;;;;;31.20;19.10;;;;;;;5.29;77.94;100754.86;126608;1288;107351;-75
2023/01/04 10:37:50;;;;;;;32.10;20.30;;;;;;;5.40;77.84;100746.92;126779;1296;107522;-73
2023/01/04 10:40:59;;;;;;;31.30;19.40;;;;;;;5.44;77.77;100737.45;126712;1288;107524;-73
2023/01/04 10:44:15;;;;;;;30.70;19.00;;;;;;;5.49;77.65;100728.45;126661;1297;107498;-73
2023/01/04 10:47:29;;;;;;;29.30;18.60;;;;;;;5.51;77.65;100722.80;126779;1288;106567;-73
2023/01/04 10:50:43;;;;;;;38.90;23.50;;;;;;;5.55;77.43;100721.33;126933;1296;107504;-73
2023/01/04 10:53:54;;;;;;;42.20;25.00;;;;;;;5.53;77.53;100714.38;126802;1288;107546;-74
2023/01/04 10:57:04;;;;;;;32.00;19.20;;;;;;;5.54;77.37;100709.21;126565;1301;107414;-73
2023/01/04 11:00:17;;;;;;;35.10;20.10;;;;;;;5.55;77.43;100705.66;126521;1289;107516;-74
2023/01/04 11:03:28;;;;;;;31.20;18.40;;;;;;;5.58;77.33;100701.33;126733;1296;107490;-73
2023/01/04 11:06:40;;;;;;;29.30;18.90;;;;;;;5.67;77.53;100695.76;126623;1298;107387;-73
2023/01/04 11:09:53;;;;;;;27.90;18.80;;;;;;;5.77;77.23;100690.08;126580;1294;107354;-73
2023/01/04 11:12:58;;;;;;;27.90;17.70;;;;;;;5.85;77.16;100678.89;126890;1289;107523;-73
2023/01/04 11:16:06;;;;;;;36.60;24.60;;;;;;;5.90;76.94;100671.10;126761;1288;107508;-73
2023/01/04 11:19:12;;;;;;;36.80;24.50;;;;;;;5.94;76.93;100652.30;126982;1297;107304;-74
2023/01/04 11:22:24;;;;;;;34.80;22.10;;;;;;;5.97;76.95;100628.11;126912;1295;109180;-73
2023/01/04 11:25:33;;;;;;;29.80;18.40;;;;;;;5.98;76.90;100610.86;126715;1297;107591;-73
2023/01/04 11:28:46;;;;;;;32.00;19.10;;;;;;;5.99;76.81;100590.54;126780;1296;107337;-73
2023/01/04 11:31:56;;;;;;;29.30;19.00;;;;;;;5.94;76.79;100582.87;126538;1294;107317;-73
2023/01/04 11:35:02;;;;;;;30.10;18.60;;;;;;;5.91;76.98;100585.43;126553;1288;107538;-73
2023/01/04 11:38:17;;;;;;;28.40;16.90;;;;;;;5.87;76.85;100580.77;126560;1296;107284;-74
2023/01/04 11:41:23;;;;;;;35.00;19.10;;;;;;;5.85;76.79;100572.94;126594;1296;108353;-74
2023/01/04 11:44:29;;;;;;;29.90;18.10;;;;;;;5.86;76.73;100557.66;126603;1298;107554;-73
2023/01/04 11:47:34;;;;;;;32.10;18.80;;;;;;;5.90;76.90;100537.86;126664;1296;106508;-73
2023/01/04 11:50:45;;;;;;;27.10;17.40;;;;;;;5.95;76.95;100526.01;126469;1297;106940;-73
2023/01/04 11:53:59;;;;;;;29.30;17.80;;;;;;;5.98;76.55;100516.93;126543;1297;108665;-75
2023/01/04 11:57:09;;;;;;;28.60;16.60;;;;;;;6.01;76.56;100513.88;126551;1296;107440;-74
2023/01/04 12:00:18;;;;;;;26.50;16.40;;;;;;;6.02;76.43;100503.07;126521;1297;108163;-73
2023/01/04 12:03:28;;;;;;;28.40;18.20;;;;;;;6.01;76.58;100502.76;126568;1295;107538;-73
2023/01/04 12:06:39;;;;;;;25.80;16.20;;;;;;;6.00;76.71;100501.42;126511;1297;106503;-74
2023/01/04 12:09:44;;;;;;;24.90;16.20;;;;;;;5.99;76.46;100492.50;126696;1298;107502;-73
2023/01/04 12:12:50;;;;;;;26.90;16.50;;;;;;;5.99;76.48;100484.91;126655;1283;107538;-74
2023/01/04 12:16:05;;;;;;;24.50;15.80;;;;;;;5.99;76.62;100475.96;126497;1288;107505;-73
2023/01/04 12:19:16;;;;;;;22.90;14.50;;;;;;;6.00;76.55;100470.51;126530;1299;107366;-73
2023/01/04 12:22:25;;;;;;;25.40;14.40;;;;;;;6.02;76.65;100465.57;126526;1298;107497;-73
2023/01/04 12:25:35;;;;;;;24.60;13.80;;;;;;;6.07;76.57;100452.11;126526;1298;107237;-73
2023/01/04 12:28:43;;;;;;;23.90;14.70;;;;;;;6.14;76.46;100439.07;126581;1298;107518;-73
2023/01/04 12:31:49;;;;;;;30.80;16.20;;;;;;;6.21;76.51;100425.83;126486;1294;107506;-74
2023/01/04 12:34:55;;;;;;;27.90;16.50;;;;;;;6.27;76.36;100403.44;126565;1297;107435;-73
2023/01/04 12:38:01;;;;;;;45.80;21.10;;;;;;;6.31;76.33;100405.27;126571;1291;107704;-73
2023/01/04 12:41:06;;;;;;;36.00;18.10;;;;;;;6.31;76.01;100402.61;126605;1297;107608;-73
2023/01/04 12:44:45;;;;;;;300.40;140.30;;;;;;;6.27;76.30;100399.87;126596;1296;107542;-73
2023/01/04 12:51:23;;;;;;;49.10;28.60;;;;;;;6.26;75.97;100383.71;126672;1295;107270;-73
2023/01/04 12:54:46;;;;;;;30.00;18.50;;;;;;;6.22;76.15;100378.55;126627;1288;107352;-73
2023/01/04 12:57:52;;;;;;;28.30;18.00;;;;;;;6.16;76.06;100374.45;126577;1298;107325;-73
2023/01/04 13:01:23;;;;;;;29.30;17.60;;;;;;;6.11;76.11;100371.83;126608;1298;107512;-73
2023/01/04 13:04:39;;;;;;;29.70;15.60;;;;;;;6.06;76.03;100348.40;126539;1298;107445;-73
2023/01/04 13:07:47;;;;;;;27.40;16.00;;;;;;;6.05;76.02;100326.05;126536;1297;107453;-73
2023/01/04 13:10:54;;;;;;;28.60;16.50;;;;;;;6.07;76.23;100314.36;126571;1298;108658;-73
2023/01/04 13:14:07;;;;;;;26.50;16.40;;;;;;;6.10;76.28;100299.67;126549;1280;108596;-73
2023/01/04 13:17:23;;;;;;;27.10;16.10;;;;;;;6.11;75.77;100301.23;126842;1286;107569;-73
2023/01/04 13:20:30;;;;;;;26.20;16.00;;;;;;;6.07;75.97;100287.73;126725;1280;107471;-75
2023/01/04 13:23:36;;;;;;;27.30;17.10;;;;;;;6.03;76.13;100278.51;126945;1283;105349;-75
2023/01/04 13:26:47;;;;;;;27.00;16.20;;;;;;;5.98;75.82;100285.45;126715;1288;107390;-74
2023/01/04 13:29:53;;;;;;;25.00;16.00;;;;;;;5.92;75.65;100275.27;126487;1296;107809;-75
2023/01/04 13:33:07;;;;;;;36.30;21.80;;;;;;;5.87;75.83;100268.42;126608;1292;105625;-75
2023/01/04 13:36:13;;;;;;;37.80;21.00;;;;;;;5.82;75.73;100261.92;126587;1285;107569;-75
2023/01/04 13:39:25;;;;;;;34.70;17.60;;;;;;;5.77;75.78;100257.28;126577;1287;107604;-75
2023/01/04 13:42:40;;;;;;;25.50;13.90;;;;;;;5.74;75.88;100252.52;126642;1288;106798;-74
2023/01/04 13:46:09;;;;;;;66.60;29.50;;;;;;;5.74;75.77;100248.45;126637;1288;111120;-75
2023/01/04 13:49:17;;;;;;;33.00;17.10;;;;;;;5.79;75.72;100241.35;126610;1288;107445;-74
2023/01/04 13:52:24;;;;;;;36.70;21.00;;;;;;;5.83;75.40;100232.02;126588;1280;106645;-73
2023/01/04 13:55:33;;;;;;;31.80;18.40;;;;;;;5.84;75.76;100231.96;126536;1298;107525;-73
2023/01/04 13:58:39;;;;;;;25.60;15.60;;;;;;;5.84;75.31;100208.67;126516;1296;107516;-74
2023/01/04 14:01:47;;;;;;;26.30;15.00;;;;;;;5.82;75.49;100203.58;126434;1288;106680;-74
2023/01/04 14:04:53;;;;;;;25.20;15.10;;;;;;;5.80;75.48;100196.44;126697;1286;107521;-74
2023/01/04 14:07:59;;;;;;;22.80;14.40;;;;;;;5.79;75.60;100185.79;126689;1287;107365;-76
2023/01/04 14:11:14;;;;;;;25.70;16.10;;;;;;;5.74;75.66;100185.52;126720;1280;107546;-75
2023/01/04 14:14:28;;;;;;;21.50;13.20;;;;;;;5.71;75.64;100178.33;126781;1296;107444;-73
2023/01/04 14:17:38;;;;;;;21.30;12.80;;;;;;;5.69;75.58;100163.81;126828;1285;108509;-74
2023/01/04 14:20:44;;;;;;;22.50;13.30;;;;;;;5.70;75.87;100152.10;126515;1296;107503;-73
2023/01/04 14:23:49;;;;;;;20.40;12.70;;;;;;;5.73;75.65;100145.80;126733;1296;106167;-73
2023/01/04 14:26:55;;;;;;;47.90;23.70;;;;;;;5.78;75.56;100144.91;126835;1296;107594;-73
2023/01/04 14:30:01;;;;;;;328.60;123.50;;;;;;;5.81;75.44;100130.22;126689;1297;107687;-73
2023/01/04 14:33:17;;;;;;;45.30;21.20;;;;;;;5.81;75.39;100122.76;126716;1293;107632;-73
2023/01/04 14:36:26;;;;;;;45.10;19.60;;;;;;;5.81;75.46;100110.43;126888;1293;105737;-73
2023/01/04 14:39:34;;;;;;;123.00;42.40;;;;;;;5.79;75.84;100104.75;126824;1294;107553;-75
2023/01/04 14:42:40;;;;;;;332.80;86.80;;;;;;;5.77;75.63;100098.77;127011;1286;108604;-73
2023/01/04 14:45:46;;;;;;;302.50;85.90;;;;;;;5.73;75.44;100094.67;126901;1288;107232;-71
2023/01/04 14:48:51;;;;;;;142.30;47.40;;;;;;;5.70;75.55;100095.25;126520;1298;107223;-71
2023/01/04 14:51:58;;;;;;;105.20;38.40;;;;;;;5.67;75.65;100086.34;126477;1298;107690;-72